createdAt,value
2019-02-12T00:00:03.388Z,1015.80
2019-02-12T00:01:03.364Z,1015.74
2019-02-12T00:02:03.343Z,1015.75
2019-02-12T00:03:03.317Z,1015.82
2019-02-12T00:04:03.295Z,1015.85
2019-02-12T00:05:03.270Z,1015.82
2019-02-12T00:06:03.244Z,1015.90
2019-02-12T00:07:03.223Z,1015.82
2019-02-12T00:08:03.199Z,1015.81
2019-02-12T00:09:03.178Z,1015.88
2019-02-12T00:10:03.149Z,1015.87
2019-02-12T00:11:03.125Z,1015.86
2019-02-12T00:12:03.103Z,1015.84
2019-02-12T00:13:03.085Z,1015.90
2019-02-12T00:14:03.058Z,1015.82
2019-02-12T00:15:03.039Z,1015.87
2019-02-12T00:16:03.010Z,1015.87
2019-02-12T00:17:02.990Z,1015.87
2019-02-12T00:18:02.963Z,1015.80
2019-02-12T00:19:02.938Z,1015.88
2019-02-12T00:20:02.921Z,1015.79
2019-02-12T00:21:08.933Z,1015.86
2019-02-12T00:22:02.871Z,1015.83
2019-02-12T00:23:02.849Z,1015.79
2019-02-12T00:24:02.823Z,1015.80
2019-02-12T00:25:02.803Z,1015.82
2019-02-12T00:26:02.775Z,1015.84
2019-02-12T00:27:02.749Z,1015.85
2019-02-12T00:28:02.733Z,1015.84
2019-02-12T00:29:02.705Z,1015.81
2019-02-12T00:30:02.683Z,1015.82
2019-02-12T00:31:02.654Z,1015.82
2019-02-12T00:32:02.639Z,1015.83
2019-02-12T00:33:02.617Z,1015.87
2019-02-12T00:34:02.609Z,1015.81
2019-02-12T00:35:02.564Z,1015.83
2019-02-12T00:36:02.540Z,1015.83
2019-02-12T00:37:02.523Z,1015.81
2019-02-12T00:38:02.501Z,1015.88
2019-02-12T00:39:02.473Z,1015.78
2019-02-12T00:40:02.446Z,1015.79
2019-02-12T00:41:02.423Z,1015.84
2019-02-12T00:42:02.399Z,1015.89
2019-02-12T00:43:02.435Z,1015.89
2019-02-12T00:44:02.356Z,1015.89
2019-02-12T00:45:02.332Z,1015.95
2019-02-12T00:46:02.306Z,1015.90
2019-02-12T00:47:02.284Z,1015.97
2019-02-12T00:48:02.259Z,1015.91
2019-02-12T00:49:02.230Z,1015.92
2019-02-12T00:50:02.214Z,1015.90
2019-02-12T00:51:02.183Z,1015.88
2019-02-12T00:52:02.169Z,1016.02
2019-02-12T00:53:02.144Z,1015.96
2019-02-12T00:54:02.121Z,1015.94
2019-02-12T00:55:02.113Z,1015.98
2019-02-12T00:56:02.073Z,1015.97
2019-02-12T00:57:02.047Z,1016.02
2019-02-12T00:58:02.029Z,1015.98
2019-02-12T00:59:02.001Z,1016.02
2019-02-12T01:00:01.981Z,1015.98
2019-02-12T01:01:01.955Z,1016.03
2019-02-12T01:02:01.935Z,1016.07
2019-02-12T01:03:01.907Z,1016.08
2019-02-12T01:04:01.886Z,1016.11
2019-02-12T01:05:01.863Z,1016.13
2019-02-12T01:06:01.837Z,1016.12
2019-02-12T01:07:01.813Z,1016.04
2019-02-12T01:08:01.790Z,1016.08
2019-02-12T01:09:01.768Z,1016.20
2019-02-12T01:10:01.749Z,1016.13
2019-02-12T01:11:01.719Z,1016.19
2019-02-12T01:12:01.702Z,1016.16
2019-02-12T01:13:01.674Z,1016.20
2019-02-12T01:14:01.648Z,1016.18
2019-02-12T01:15:01.628Z,1016.18
2019-02-12T01:16:01.602Z,1016.22
2019-02-12T01:17:01.590Z,1016.27
2019-02-12T01:18:01.559Z,1016.29
2019-02-12T01:19:01.530Z,1016.27
2019-02-12T01:20:01.516Z,1016.23
2019-02-12T01:21:01.487Z,1016.27
2019-02-12T01:22:01.464Z,1016.27
2019-02-12T01:23:01.440Z,1016.33
2019-02-12T01:24:01.413Z,1016.35
2019-02-12T01:25:01.392Z,1016.38
2019-02-12T01:26:01.368Z,1016.36
2019-02-12T01:27:01.347Z,1016.35
2019-02-12T01:28:01.330Z,1016.43
2019-02-12T01:29:01.305Z,1016.46
2019-02-12T01:30:01.277Z,1016.44
2019-02-12T01:31:01.256Z,1016.49
2019-02-12T01:32:01.235Z,1016.44
2019-02-12T01:33:01.212Z,1016.44
2019-02-12T01:34:01.177Z,1016.45
2019-02-12T01:35:01.164Z,1016.49
2019-02-12T01:36:01.135Z,1016.54
2019-02-12T01:37:01.112Z,1016.49
2019-02-12T01:38:01.093Z,1016.54
2019-02-12T01:39:01.065Z,1016.56
2019-02-12T01:40:01.040Z,1016.51
2019-02-12T01:41:01.024Z,1016.43
2019-02-12T01:42:00.993Z,1016.59
2019-02-12T01:43:00.970Z,1016.57
2019-02-12T01:44:00.948Z,1016.62
2019-02-12T01:45:00.924Z,1016.63
2019-02-12T01:46:00.900Z,1016.70
2019-02-12T01:47:00.878Z,1016.61
2019-02-12T01:48:00.854Z,1016.63
2019-02-12T01:49:00.838Z,1016.67
2019-02-12T01:50:00.896Z,1016.72
2019-02-12T01:51:00.782Z,1016.64
2019-02-12T01:52:00.760Z,1016.63
2019-02-12T01:53:00.748Z,1016.72
2019-02-12T01:54:00.710Z,1016.74
2019-02-12T01:55:00.688Z,1016.71
2019-02-12T01:56:00.664Z,1016.71
2019-02-12T01:57:00.640Z,1016.69
2019-02-12T01:58:00.621Z,1016.70
2019-02-12T01:59:00.597Z,1016.65
2019-02-12T02:00:00.579Z,1016.70
2019-02-12T02:01:00.550Z,1016.68
2019-02-12T02:02:00.528Z,1016.66
2019-02-12T02:03:00.505Z,1016.66
2019-02-12T02:04:00.480Z,1016.66
2019-02-12T02:05:00.458Z,1016.64
2019-02-12T02:06:00.434Z,1016.70
2019-02-12T02:07:00.406Z,1016.68
2019-02-12T02:08:00.396Z,1016.68
2019-02-12T02:09:00.359Z,1016.67
2019-02-12T02:10:00.338Z,1016.69
2019-02-12T02:11:00.312Z,1016.73
2019-02-12T02:12:00.298Z,1016.71
2019-02-12T02:13:00.269Z,1016.77
2019-02-12T02:14:00.245Z,1016.80
2019-02-12T02:15:00.265Z,1016.75
2019-02-12T02:16:00.200Z,1016.79
2019-02-12T02:17:00.174Z,1016.71
2019-02-12T02:18:00.157Z,1016.65
2019-02-12T02:19:00.127Z,1016.72
2019-02-12T02:20:00.124Z,1016.69
2019-02-12T02:21:00.081Z,1016.66
2019-02-12T02:22:00.056Z,1016.69
2019-02-12T02:23:00.033Z,1016.66
2019-02-12T02:24:00.007Z,1016.70
2019-02-12T02:24:59.994Z,1016.66
2019-02-12T02:25:59.963Z,1016.68
2019-02-12T02:26:59.940Z,1016.66
2019-02-12T02:27:59.918Z,1016.72
2019-02-12T02:28:59.893Z,1016.74
2019-02-12T02:29:59.861Z,1016.81
2019-02-12T02:30:59.847Z,1016.85
2019-02-12T02:31:59.822Z,1016.85
2019-02-12T02:32:59.799Z,1016.86
2019-02-12T02:33:59.786Z,1016.86
2019-02-12T02:34:59.754Z,1016.85
2019-02-12T02:35:59.731Z,1016.96
2019-02-12T02:36:59.705Z,1016.93
2019-02-12T02:37:59.683Z,1016.94
2019-02-12T02:38:59.662Z,1016.95
2019-02-12T02:39:59.638Z,1016.91
2019-02-12T02:40:59.619Z,1016.95
2019-02-12T02:41:59.591Z,1016.99
2019-02-12T02:42:59.567Z,1016.90
2019-02-12T02:43:59.545Z,1016.98
2019-02-12T02:44:59.515Z,1017.07
2019-02-12T02:45:59.501Z,1017.03
2019-02-12T02:46:59.476Z,1016.93
2019-02-12T02:47:59.446Z,1017.01
2019-02-12T02:48:59.423Z,1016.93
2019-02-12T02:49:59.407Z,1017.01
2019-02-12T02:50:59.378Z,1017.03
2019-02-12T02:51:59.360Z,1016.98
2019-02-12T02:52:59.331Z,1017.04
2019-02-12T02:53:59.305Z,1017.03
2019-02-12T02:54:59.281Z,1017.01
2019-02-12T02:55:59.262Z,1017.04
2019-02-12T02:56:59.238Z,1017.11
2019-02-12T02:57:59.217Z,1017.07
2019-02-12T02:58:59.195Z,1017.07
2019-02-12T02:59:59.165Z,1017.04
2019-02-12T03:00:59.147Z,1017.03
2019-02-12T03:01:59.122Z,1017.05
2019-02-12T03:02:59.096Z,1017.05
2019-02-12T03:03:59.075Z,1017.19
2019-02-12T03:04:59.055Z,1017.13
2019-02-12T03:05:59.027Z,1017.12
2019-02-12T03:06:59.001Z,1017.19
2019-02-12T03:07:58.979Z,1017.14
2019-02-12T03:08:58.956Z,1017.13
2019-02-12T03:09:58.930Z,1017.15
2019-02-12T03:10:58.910Z,1017.18
2019-02-12T03:11:58.882Z,1017.10
2019-02-12T03:12:58.865Z,1017.22
2019-02-12T03:13:58.909Z,1017.26
2019-02-12T03:14:58.816Z,1017.21
2019-02-12T03:15:58.793Z,1017.25
2019-02-12T03:16:58.779Z,1017.25
2019-02-12T03:17:58.745Z,1017.28
2019-02-12T03:18:58.721Z,1017.24
2019-02-12T03:19:58.697Z,1017.37
2019-02-12T03:20:58.673Z,1017.28
2019-02-12T03:22:03.594Z,1017.29
2019-02-12T03:22:58.623Z,1017.37
2019-02-12T03:23:58.603Z,1017.34
2019-02-12T03:24:58.582Z,1017.34
2019-02-12T03:25:58.557Z,1017.42
2019-02-12T03:26:58.536Z,1017.38
2019-02-12T03:27:58.515Z,1017.41
2019-02-12T03:28:58.490Z,1017.44
2019-02-12T03:29:58.464Z,1017.49
2019-02-12T03:30:58.443Z,1017.50
2019-02-12T03:31:58.437Z,1017.41
2019-02-12T03:32:58.397Z,1017.43
2019-02-12T03:33:58.369Z,1017.54
2019-02-12T03:34:58.341Z,1017.47
2019-02-12T03:35:58.331Z,1017.51
2019-02-12T03:36:58.301Z,1017.53
2019-02-12T03:37:58.280Z,1017.54
2019-02-12T03:38:58.252Z,1017.54
2019-02-12T03:39:58.235Z,1017.60
2019-02-12T03:40:58.206Z,1017.58
2019-02-12T03:41:58.186Z,1017.62
2019-02-12T03:42:58.154Z,1017.55
2019-02-12T03:43:58.136Z,1017.58
2019-02-12T03:44:58.116Z,1017.53
2019-02-12T03:45:58.092Z,1017.54
2019-02-12T03:46:58.067Z,1017.60
2019-02-12T03:47:58.041Z,1017.60
2019-02-12T03:48:58.020Z,1017.62
2019-02-12T03:49:57.994Z,1017.59
2019-02-12T03:50:57.969Z,1017.65
2019-02-12T03:51:57.950Z,1017.65
2019-02-12T03:52:57.928Z,1017.70
2019-02-12T03:53:57.901Z,1017.60
2019-02-12T03:54:57.878Z,1017.62
2019-02-12T03:55:57.857Z,1017.59
2019-02-12T03:56:57.835Z,1017.60
2019-02-12T03:57:57.810Z,1017.62
2019-02-12T03:58:57.787Z,1017.59
2019-02-12T03:59:57.760Z,1017.58
2019-02-12T04:00:57.740Z,1017.62
2019-02-12T04:01:57.714Z,1017.62
2019-02-12T04:02:57.693Z,1017.58
2019-02-12T04:03:57.675Z,1017.62
2019-02-12T04:04:57.641Z,1017.61
2019-02-12T04:05:57.624Z,1017.59
2019-02-12T04:06:57.602Z,1017.61
2019-02-12T04:07:57.570Z,1017.60
2019-02-12T04:08:57.549Z,1017.67
2019-02-12T04:09:57.526Z,1017.73
2019-02-12T04:10:57.508Z,1017.70
2019-02-12T04:11:57.483Z,1017.71
2019-02-12T04:12:57.453Z,1017.66
2019-02-12T04:13:57.435Z,1017.62
2019-02-12T04:14:57.412Z,1017.58
2019-02-12T04:15:57.387Z,1017.61
2019-02-12T04:16:57.362Z,1017.62
2019-02-12T04:17:57.365Z,1017.60
2019-02-12T04:18:57.312Z,1017.58
2019-02-12T04:19:57.295Z,1017.57
2019-02-12T04:20:57.266Z,1017.61
2019-02-12T04:21:57.261Z,1017.62
2019-02-12T04:22:57.229Z,1017.62
2019-02-12T04:23:57.198Z,1017.58
2019-02-12T04:24:57.176Z,1017.64
2019-02-12T04:25:57.152Z,1017.57
2019-02-12T04:26:57.130Z,1017.59
2019-02-12T04:27:57.110Z,1017.59
2019-02-12T04:28:57.088Z,1017.55
2019-02-12T04:29:57.056Z,1017.57
2019-02-12T04:30:57.032Z,1017.54
2019-02-12T04:31:57.010Z,1017.49
2019-02-12T04:32:56.986Z,1017.58
2019-02-12T04:33:56.967Z,1017.58
2019-02-12T04:34:56.939Z,1017.62
2019-02-12T04:35:56.916Z,1017.63
2019-02-12T04:36:56.897Z,1017.63
2019-02-12T04:37:56.880Z,1017.68
2019-02-12T04:38:56.844Z,1017.73
2019-02-12T04:39:56.824Z,1017.70
2019-02-12T04:40:56.799Z,1017.70
2019-02-12T04:41:56.774Z,1017.75
2019-02-12T04:42:56.749Z,1017.82
2019-02-12T04:43:56.729Z,1017.78
2019-02-12T04:44:56.710Z,1017.79
2019-02-12T04:45:56.683Z,1017.76
2019-02-12T04:48:56.611Z,1017.81
2019-02-12T04:50:56.567Z,1017.77
2019-02-12T04:51:56.545Z,1017.76
2019-02-12T04:52:56.524Z,1017.69
2019-02-12T04:53:56.489Z,1017.71
2019-02-12T04:54:56.471Z,1017.69
2019-02-12T04:55:56.452Z,1017.63
2019-02-12T04:56:56.422Z,1017.65
2019-02-12T04:57:56.399Z,1017.59
2019-02-12T04:58:56.370Z,1017.63
2019-02-12T04:59:56.347Z,1017.66
2019-02-12T05:00:56.330Z,1017.71
2019-02-12T05:01:56.306Z,1017.64
2019-02-12T05:02:56.275Z,1017.72
2019-02-12T05:03:56.253Z,1017.73
2019-02-12T05:04:56.232Z,1017.69
2019-02-12T05:05:56.269Z,1017.70
2019-02-12T05:06:56.186Z,1017.72
2019-02-12T05:07:56.169Z,1017.68
2019-02-12T05:08:57.932Z,1017.78
2019-02-12T05:09:56.120Z,1017.76
2019-02-12T05:10:56.111Z,1017.84
2019-02-12T05:11:56.071Z,1017.97
2019-02-12T05:12:56.048Z,1017.99
2019-02-12T05:13:56.017Z,1017.98
2019-02-12T05:14:55.995Z,1018.06
2019-02-12T05:15:55.967Z,1018.05
2019-02-12T05:16:55.958Z,1018.10
2019-02-12T05:17:55.921Z,1018.10
2019-02-12T05:18:55.998Z,1018.10
2019-02-12T05:19:55.876Z,1018.16
2019-02-12T05:20:55.853Z,1018.14
2019-02-12T05:21:55.840Z,1018.12
2019-02-12T05:22:55.805Z,1018.16
2019-02-12T05:23:55.782Z,1018.18
2019-02-12T05:24:55.753Z,1018.17
2019-02-12T05:25:55.740Z,1018.13
2019-02-12T05:26:55.707Z,1018.18
2019-02-12T05:27:55.700Z,1018.15
2019-02-12T05:28:55.663Z,1018.15
2019-02-12T05:29:55.651Z,1018.14
2019-02-12T05:30:55.613Z,1018.20
2019-02-12T05:31:55.601Z,1018.22
2019-02-12T05:32:55.571Z,1018.23
2019-02-12T05:33:55.542Z,1018.25
2019-02-12T05:34:55.979Z,1018.30
2019-02-12T05:35:55.497Z,1018.24
2019-02-12T05:36:55.475Z,1018.30
2019-02-12T05:37:55.455Z,1018.27
2019-02-12T05:38:55.426Z,1018.39
2019-02-12T05:39:55.402Z,1018.39
2019-02-12T05:40:55.377Z,1018.42
2019-02-12T05:41:55.357Z,1018.52
2019-02-12T05:42:55.391Z,1018.49
2019-02-12T05:43:55.321Z,1018.52
2019-02-12T05:44:55.283Z,1018.59
2019-02-12T05:45:55.260Z,1018.63
2019-02-12T05:46:55.232Z,1018.67
2019-02-12T05:47:55.210Z,1018.66
2019-02-12T05:48:55.189Z,1018.65
2019-02-12T05:49:55.165Z,1018.72
2019-02-12T05:50:55.139Z,1018.77
2019-02-12T05:51:55.117Z,1018.78
2019-02-12T05:52:55.318Z,1018.84
2019-02-12T05:53:55.080Z,1018.80
2019-02-12T05:54:55.046Z,1018.79
2019-02-12T05:55:55.033Z,1018.84
2019-02-12T05:56:54.997Z,1018.89
2019-02-12T05:57:54.975Z,1018.95
2019-02-12T05:58:54.951Z,1018.90
2019-02-12T05:59:54.929Z,1018.93
2019-02-12T06:00:54.903Z,1018.93
2019-02-12T06:01:54.876Z,1018.97
2019-02-12T06:02:54.867Z,1018.99
2019-02-12T06:03:54.833Z,1018.99
2019-02-12T06:04:54.809Z,1019.00
2019-02-12T06:05:54.783Z,1018.97
2019-02-12T06:06:54.769Z,1018.99
2019-02-12T06:07:54.735Z,1019.07
2019-02-12T06:08:54.714Z,1019.08
2019-02-12T06:09:54.700Z,1019.04
2019-02-12T06:10:54.670Z,1019.08
2019-02-12T06:11:54.645Z,1019.11
2019-02-12T06:12:54.617Z,1019.14
2019-02-12T06:13:54.597Z,1019.15
2019-02-12T06:14:54.570Z,1019.18
2019-02-12T06:15:54.550Z,1019.19
2019-02-12T06:16:54.526Z,1019.25
2019-02-12T06:17:54.499Z,1019.29
2019-02-12T06:18:54.480Z,1019.31
2019-02-12T06:19:54.463Z,1019.30
2019-02-12T06:20:54.435Z,1019.26
2019-02-12T06:21:54.407Z,1019.30
2019-02-12T06:23:03.061Z,1019.33
2019-02-12T06:23:54.359Z,1019.32
2019-02-12T06:24:54.335Z,1019.30
2019-02-12T06:25:54.317Z,1019.32
2019-02-12T06:26:54.288Z,1019.30
2019-02-12T06:27:54.266Z,1019.26
2019-02-12T06:28:54.238Z,1019.26
2019-02-12T06:29:54.220Z,1019.29
2019-02-12T06:30:54.192Z,1019.31
2019-02-12T06:31:54.170Z,1019.36
2019-02-12T06:32:54.156Z,1019.43
2019-02-12T06:33:54.132Z,1019.40
2019-02-12T06:34:54.101Z,1019.41
2019-02-12T06:35:54.082Z,1019.42
2019-02-12T06:36:54.060Z,1019.49
2019-02-12T06:37:54.030Z,1019.52
2019-02-12T06:38:54.006Z,1019.57
2019-02-12T06:39:53.982Z,1019.61
2019-02-12T06:40:53.961Z,1019.60
2019-02-12T06:41:53.938Z,1019.66
2019-02-12T06:42:53.919Z,1019.70
2019-02-12T06:43:53.894Z,1019.69
2019-02-12T06:44:53.868Z,1019.72
2019-02-12T06:45:53.845Z,1019.72
2019-02-12T06:46:53.822Z,1019.70
2019-02-12T06:47:53.803Z,1019.78
2019-02-12T06:48:53.772Z,1019.78
2019-02-12T06:49:53.763Z,1019.76
2019-02-12T06:50:53.724Z,1019.77
2019-02-12T06:51:53.703Z,1019.79
2019-02-12T06:52:53.678Z,1019.80
2019-02-12T06:53:53.654Z,1019.83
2019-02-12T06:54:53.627Z,1019.83
2019-02-12T06:55:53.606Z,1019.80
2019-02-12T06:56:53.583Z,1019.80
2019-02-12T06:57:53.561Z,1019.74
2019-02-12T06:58:53.536Z,1019.80
2019-02-12T06:59:53.514Z,1019.81
2019-02-12T07:00:53.492Z,1019.79
2019-02-12T07:01:53.472Z,1019.79
2019-02-12T07:02:53.441Z,1019.79
2019-02-12T07:03:53.420Z,1019.87
2019-02-12T07:04:53.395Z,1019.84
2019-02-12T07:05:53.378Z,1019.82
2019-02-12T07:06:53.354Z,1019.84
2019-02-12T07:07:53.324Z,1019.92
2019-02-12T07:08:53.309Z,1019.96
2019-02-12T07:09:53.284Z,1019.94
2019-02-12T07:10:53.261Z,1020.00
2019-02-12T07:11:53.242Z,1020.03
2019-02-12T07:12:53.233Z,1020.05
2019-02-12T07:13:53.187Z,1020.15
2019-02-12T07:14:53.166Z,1020.10
2019-02-12T07:15:53.139Z,1020.13
2019-02-12T07:16:53.118Z,1020.18
2019-02-12T07:17:53.094Z,1020.20
2019-02-12T07:18:54.535Z,1020.25
2019-02-12T07:19:53.043Z,1020.21
2019-02-12T07:20:53.029Z,1020.17
2019-02-12T07:21:53.003Z,1020.19
2019-02-12T07:22:52.976Z,1020.20
2019-02-12T07:23:52.953Z,1020.26
2019-02-12T07:24:52.931Z,1020.22
2019-02-12T07:25:55.113Z,1020.22
2019-02-12T07:26:52.882Z,1020.28
2019-02-12T07:27:52.858Z,1020.30
2019-02-12T07:28:52.847Z,1020.24
2019-02-12T07:29:52.811Z,1020.29
2019-02-12T07:30:52.791Z,1020.29
2019-02-12T07:31:52.769Z,1020.30
2019-02-12T07:32:52.741Z,1020.29
2019-02-12T07:33:52.733Z,1020.31
2019-02-12T07:34:52.700Z,1020.28
2019-02-12T07:35:52.685Z,1020.28
2019-02-12T07:36:52.659Z,1020.30
2019-02-12T07:37:52.628Z,1020.33
2019-02-12T07:38:52.613Z,1020.32
2019-02-12T07:39:52.583Z,1020.36
2019-02-12T07:40:52.557Z,1020.41
2019-02-12T07:41:52.544Z,1020.40
2019-02-12T07:42:52.519Z,1020.42
2019-02-12T07:43:52.491Z,1020.42
2019-02-12T07:44:52.467Z,1020.40
2019-02-12T07:45:52.446Z,1020.40
2019-02-12T07:46:52.421Z,1020.41
2019-02-12T07:47:52.398Z,1020.50
2019-02-12T07:48:52.378Z,1020.47
2019-02-12T07:49:52.357Z,1020.54
2019-02-12T07:50:52.327Z,1020.52
2019-02-12T07:51:52.306Z,1020.55
2019-02-12T07:52:52.280Z,1020.52
2019-02-12T07:53:52.262Z,1020.52
2019-02-12T07:54:52.235Z,1020.63
2019-02-12T07:55:52.216Z,1020.61
2019-02-12T07:56:52.191Z,1020.66
2019-02-12T07:57:52.163Z,1020.72
2019-02-12T07:58:52.152Z,1020.65
2019-02-12T07:59:52.124Z,1020.73
2019-02-12T08:00:52.104Z,1020.72
2019-02-12T08:01:52.075Z,1020.69
2019-02-12T08:02:52.063Z,1020.76
2019-02-12T08:03:52.044Z,1020.65
2019-02-12T08:04:52.002Z,1020.69
2019-02-12T08:05:51.986Z,1020.73
2019-02-12T08:06:51.966Z,1020.80
2019-02-12T08:07:51.936Z,1020.69
2019-02-12T08:08:51.921Z,1020.84
2019-02-12T08:09:51.894Z,1020.82
2019-02-12T08:10:51.869Z,1020.81
2019-02-12T08:11:51.853Z,1020.84
2019-02-12T08:12:51.831Z,1020.83
2019-02-12T08:13:51.799Z,1020.84
2019-02-12T08:14:51.777Z,1020.85
2019-02-12T08:15:51.754Z,1020.87
2019-02-12T08:16:51.731Z,1020.90
2019-02-12T08:17:51.718Z,1020.87
2019-02-12T08:18:51.682Z,1020.92
2019-02-12T08:19:51.665Z,1021.04
2019-02-12T08:20:51.639Z,1020.99
2019-02-12T08:21:51.620Z,1021.08
2019-02-12T08:22:51.594Z,1021.07
2019-02-12T08:23:51.571Z,1021.11
2019-02-12T08:24:51.558Z,1021.09
2019-02-12T08:25:51.529Z,1021.16
2019-02-12T08:26:51.506Z,1021.15
2019-02-12T08:27:51.481Z,1021.22
2019-02-12T08:28:52.158Z,1021.22
2019-02-12T08:29:51.437Z,1021.24
2019-02-12T08:30:51.427Z,1021.25
2019-02-12T08:31:51.402Z,1021.29
2019-02-12T08:32:51.403Z,1021.29
2019-02-12T08:33:51.348Z,1021.31
2019-02-12T08:34:51.323Z,1021.26
2019-02-12T08:35:57.124Z,1021.22
2019-02-12T08:36:51.313Z,1021.24
2019-02-12T08:37:51.260Z,1021.23
2019-02-12T08:38:51.235Z,1021.33
2019-02-12T08:39:51.219Z,1021.31
2019-02-12T08:40:51.195Z,1021.28
2019-02-12T08:41:51.171Z,1021.36
2019-02-12T08:42:51.149Z,1021.36
2019-02-12T08:43:51.125Z,1021.29
2019-02-12T08:44:51.102Z,1021.40
2019-02-12T08:45:51.081Z,1021.37
2019-02-12T08:46:53.102Z,1021.40
2019-02-12T08:47:51.040Z,1021.39
2019-02-12T08:48:51.016Z,1021.37
2019-02-12T08:49:50.992Z,1021.41
2019-02-12T08:50:50.969Z,1021.79
2019-02-12T08:51:50.947Z,1021.73
2019-02-12T08:52:50.928Z,1021.61
2019-02-12T08:53:50.959Z,1021.75
2019-02-12T08:54:50.883Z,1021.59
2019-02-12T08:55:50.865Z,1021.52
2019-02-12T08:56:50.944Z,1021.46
2019-02-12T08:57:50.822Z,1021.48
2019-02-12T08:58:50.800Z,1021.52
2019-02-12T08:59:50.800Z,1021.67
2019-02-12T09:00:50.752Z,1021.79
2019-02-12T09:01:52.158Z,1021.73
2019-02-12T09:02:50.705Z,1021.68
2019-02-12T09:03:50.693Z,1021.65
2019-02-12T09:04:50.668Z,1021.63
2019-02-12T09:05:50.656Z,1021.65
2019-02-12T09:06:50.629Z,1021.76
2019-02-12T09:07:50.608Z,1021.83
2019-02-12T09:08:50.585Z,1021.88
2019-02-12T09:09:50.558Z,1021.91
2019-02-12T09:10:50.538Z,1021.86
2019-02-12T09:11:50.515Z,1021.83
2019-02-12T09:12:50.505Z,1021.82
2019-02-12T09:13:50.492Z,1021.75
2019-02-12T09:14:50.449Z,1021.75
2019-02-12T09:15:50.430Z,1021.79
2019-02-12T09:16:50.419Z,1021.74
2019-02-12T09:17:50.395Z,1021.76
2019-02-12T09:18:50.370Z,1021.75
2019-02-12T09:19:50.350Z,1021.77
2019-02-12T09:20:50.331Z,1021.89
2019-02-12T09:21:50.307Z,1021.88
2019-02-12T09:22:50.281Z,1021.85
2019-02-12T09:23:59.412Z,1021.85
2019-02-12T09:24:50.240Z,1021.92
2019-02-12T09:25:50.222Z,1021.95
2019-02-12T09:26:50.199Z,1021.93
2019-02-12T09:27:50.177Z,1021.97
2019-02-12T09:28:50.162Z,1021.99
2019-02-12T09:29:50.137Z,1022.15
2019-02-12T09:30:50.120Z,1022.09
2019-02-12T09:31:50.093Z,1022.07
2019-02-12T09:32:50.069Z,1022.03
2019-02-12T09:33:50.059Z,1022.08
2019-02-12T09:34:50.028Z,1022.47
2019-02-12T09:35:50.008Z,1022.15
2019-02-12T09:36:49.988Z,1022.09
2019-02-12T09:37:49.971Z,1022.20
2019-02-12T09:38:49.946Z,1022.22
2019-02-12T09:39:49.921Z,1022.25
2019-02-12T09:40:49.905Z,1022.57
2019-02-12T09:41:49.887Z,1022.73
2019-02-12T09:42:49.869Z,1022.44
2019-02-12T09:43:49.839Z,1022.35
2019-02-12T09:44:49.821Z,1022.36
2019-02-12T09:45:49.807Z,1022.33
2019-02-12T09:46:49.791Z,1022.34
2019-02-12T09:47:49.763Z,1022.38
2019-02-12T09:48:49.741Z,1022.82
2019-02-12T09:49:49.723Z,1022.50
2019-02-12T09:50:49.697Z,1022.46
2019-02-12T09:51:49.690Z,1022.43
2019-02-12T09:52:49.661Z,1022.40
2019-02-12T09:53:49.641Z,1022.47
2019-02-12T09:54:49.631Z,1022.45
2019-02-12T09:55:49.602Z,1022.52
2019-02-12T09:56:49.582Z,1022.52
2019-02-12T09:57:49.563Z,1022.56
2019-02-12T09:58:49.548Z,1022.51
2019-02-12T09:59:49.522Z,1022.53
2019-02-12T10:00:49.516Z,1022.53
2019-02-12T10:01:49.485Z,1022.54
2019-02-12T10:02:49.483Z,1022.66
2019-02-12T10:03:49.440Z,1022.79
2019-02-12T10:04:49.433Z,1022.85
2019-02-12T10:05:49.408Z,1023.06
2019-02-12T10:06:49.384Z,1022.79
2019-02-12T10:07:49.391Z,1022.89
2019-02-12T10:08:49.345Z,1022.87
2019-02-12T10:09:49.333Z,1022.87
2019-02-12T10:10:49.311Z,1023.00
2019-02-12T10:11:49.291Z,1023.39
2019-02-12T10:12:49.755Z,1023.15
2019-02-12T10:13:49.243Z,1022.84
2019-02-12T10:14:49.229Z,1022.81
2019-02-12T10:15:49.210Z,1022.87
2019-02-12T10:16:49.184Z,1022.88
2019-02-12T10:17:49.177Z,1022.91
2019-02-12T10:18:49.148Z,1022.89
2019-02-12T10:19:49.128Z,1022.87
2019-02-12T10:20:49.112Z,1023.26
2019-02-12T10:21:49.094Z,1023.36
2019-02-12T10:22:49.070Z,1023.12
2019-02-12T10:23:49.052Z,1023.01
2019-02-12T10:24:49.038Z,1022.93
2019-02-12T10:25:49.039Z,1022.91
2019-02-12T10:26:49.009Z,1023.18
2019-02-12T10:27:48.972Z,1023.10
2019-02-12T10:28:49.255Z,1022.89
2019-02-12T10:29:48.936Z,1022.88
2019-02-12T10:30:48.920Z,1022.93
2019-02-12T10:31:48.898Z,1022.92
2019-02-12T10:32:48.879Z,1023.21
2019-02-12T10:33:48.874Z,1023.23
2019-02-12T10:34:48.839Z,1022.99
2019-02-12T10:35:48.825Z,1023.07
2019-02-12T10:36:48.801Z,1023.14
2019-02-12T10:37:48.791Z,1023.15
2019-02-12T10:38:48.765Z,1023.14
2019-02-12T10:39:48.756Z,1023.13
2019-02-12T10:40:48.732Z,1022.93
2019-02-12T10:41:48.712Z,1022.90
2019-02-12T10:42:48.702Z,1022.95
2019-02-12T10:43:48.672Z,1023.02
2019-02-12T10:44:48.673Z,1023.00
2019-02-12T10:45:48.642Z,1023.24
2019-02-12T10:46:48.623Z,1023.14
2019-02-12T10:47:48.601Z,1023.03
2019-02-12T10:48:48.585Z,1023.01
2019-02-12T10:49:48.588Z,1022.99
2019-02-12T10:50:48.546Z,1022.98
2019-02-12T10:51:48.530Z,1022.97
2019-02-12T10:52:48.513Z,1022.95
2019-02-12T10:53:48.502Z,1022.94
2019-02-12T10:54:48.477Z,1022.99
2019-02-12T10:55:48.459Z,1022.98
2019-02-12T10:56:48.442Z,1022.99
2019-02-12T10:57:48.430Z,1023.05
2019-02-12T10:58:48.406Z,1023.02
2019-02-12T10:59:48.388Z,1023.08
2019-02-12T11:00:48.367Z,1023.14
2019-02-12T11:01:48.350Z,1023.22
2019-02-12T11:02:48.333Z,1023.24
2019-02-12T11:03:48.314Z,1023.15
2019-02-12T11:04:48.297Z,1023.03
2019-02-12T11:05:48.274Z,1023.01
2019-02-12T11:06:48.260Z,1022.96
2019-02-12T11:07:48.240Z,1022.88
2019-02-12T11:08:48.221Z,1022.82
2019-02-12T11:09:48.204Z,1022.89
2019-02-12T11:10:48.187Z,1022.87
2019-02-12T11:11:48.167Z,1022.93
2019-02-12T11:12:48.148Z,1022.92
2019-02-12T11:13:48.134Z,1022.87
2019-02-12T11:14:48.110Z,1022.99
2019-02-12T11:15:48.092Z,1023.03
2019-02-12T11:16:48.075Z,1023.01
2019-02-12T11:17:48.063Z,1023.08
2019-02-12T11:18:48.039Z,1022.99
2019-02-12T11:19:48.019Z,1023.13
2019-02-12T11:20:48.004Z,1023.12
2019-02-12T11:21:47.981Z,1023.04
2019-02-12T11:22:47.967Z,1023.17
2019-02-12T11:23:47.949Z,1023.13
2019-02-12T11:24:47.929Z,1023.25
2019-02-12T11:25:47.912Z,1023.14
2019-02-12T11:26:47.893Z,1023.14
2019-02-12T11:27:47.878Z,1023.09
2019-02-12T11:28:47.867Z,1023.11
2019-02-12T11:29:47.840Z,1023.13
2019-02-12T11:30:47.820Z,1023.26
2019-02-12T11:31:47.805Z,1023.26
2019-02-12T11:32:47.786Z,1023.25
2019-02-12T11:33:47.768Z,1023.28
2019-02-12T11:34:47.751Z,1023.27
2019-02-12T11:35:47.735Z,1023.29
2019-02-12T11:36:47.715Z,1023.11
2019-02-12T11:37:47.699Z,1023.07
2019-02-12T11:38:47.678Z,1023.23
2019-02-12T11:39:47.659Z,1023.17
2019-02-12T11:40:47.647Z,1023.15
2019-02-12T11:41:47.628Z,1023.13
2019-02-12T11:42:47.610Z,1023.19
2019-02-12T11:43:47.593Z,1023.14
2019-02-12T11:44:47.575Z,1023.09
2019-02-12T11:45:47.557Z,1023.18
2019-02-12T11:46:47.535Z,1023.22
2019-02-12T11:47:47.530Z,1023.24
2019-02-12T11:48:47.502Z,1023.21
2019-02-12T11:49:47.490Z,1023.13
2019-02-12T11:50:47.470Z,1023.06
2019-02-12T11:51:47.450Z,1023.24
2019-02-12T11:52:47.436Z,1023.09
2019-02-12T11:53:47.419Z,1023.09
2019-02-12T11:54:47.406Z,1023.21
2019-02-12T11:55:47.379Z,1023.18
2019-02-12T11:56:47.385Z,1023.21
2019-02-12T11:57:47.347Z,1023.29
2019-02-12T11:58:47.331Z,1023.32
2019-02-12T11:59:47.314Z,1023.28
2019-02-12T12:00:47.297Z,1023.35
2019-02-12T12:01:47.275Z,1023.31
2019-02-12T12:02:47.266Z,1023.34
2019-02-12T12:03:47.245Z,1023.33
2019-02-12T12:04:47.226Z,1023.26
2019-02-12T12:05:47.211Z,1023.31
2019-02-12T12:06:47.199Z,1023.39
2019-02-12T12:07:47.178Z,1023.34